Zuidlaren, Netherlands
Current Conditions -  °F | °C
As of 10:55 PM on Wednesday 28 Jan 2015 (Local Time) from EHGG Reporting Station
Broken Clouds Broken Clouds  
Wind Chill: 30°   Ceiling: 4900
Heat Index: 39°   Visibility: 6mi
Dew Point: 34°   Wind: 18mph
Humidity: 81%   Direction: 260°W
Pressure: 29.23"   Gusts: NA
Location:  53.09°N, 6.68°E
Report Text: EHGG 282155Z AUTO 26016KT 230V290 9999 FEW025 SCT033 BKN04904/01 Q0990 TEMPO 7000 SHRA
Loading
Personal Weather Stations






























Interactive Weather Map New forecast layout! Learn more

10-Day Weather Forecast

Advertisements
Track Severe Weather on mobile